Time;durP1;ratioP1;P1;durP2;ratioP2;P2;SDS_P1;SDS_P2;PMS_P1;PMS_P2;Temp;Humidity;BMP_temperature;BMP_pressure;BME280_temperature;BME280_humidity;BME280_pressure;Samples;Min_cycle;Max_cycle;Signal;HPM_P1;HPM_P2
2022/02/07 00:01:50;;;;;;;;;;;;;;;9.06;68.98;99359.97;5088212;28;19962;-66
2022/02/07 00:04:20;;;;;;;;;;;;;;;9.04;68.95;99343.25;5087186;28;19915;-66
2022/02/07 00:06:46;;;;;;;;;;;;;;;9.02;68.82;99335.38;5088594;28;20203;-66
2022/02/07 00:09:11;;;;;;;;;;;;;;;9.00;69.00;99326.63;5089379;28;20450;-66
2022/02/07 00:11:38;;;;;;;;;;;;;;;9.00;69.07;99342.69;5088284;28;19912;-66
2022/02/07 00:14:03;;;;;;;;;;;;;;;8.96;69.02;99329.75;5087886;28;20430;-66
2022/02/07 00:16:31;;;;;;;;;;;;;;;8.95;68.97;99320.06;5087963;28;19912;-66
2022/02/07 00:18:56;;;;;;;;;;;;;;;8.96;69.48;99311.88;5089886;28;19990;-67
2022/02/07 00:21:22;;;;;;;;;;;;;;;8.94;69.32;99308.50;5086498;28;19919;-66
2022/02/07 00:23:47;;;;;;;;;;;;;;;8.98;69.34;99307.25;5088565;28;20426;-66
2022/02/07 00:26:12;;;;;;;;;;;;;;;8.96;69.30;99293.16;5088288;28;19911;-66
2022/02/07 00:28:38;;;;;;;;;;;;;;;8.95;69.24;99301.34;5090347;28;20736;-66
2022/02/07 00:31:03;;;;;;;;;;;;;;;8.94;69.40;99286.31;5087983;28;19912;-66
2022/02/07 00:33:28;;;;;;;;;;;;;;;8.94;69.24;99283.63;5087445;28;19920;-66
2022/02/07 00:35:53;;;;;;;;;;;;;;;8.94;69.40;99272.94;5087987;28;19911;-67
2022/02/07 00:38:21;;;;;;;;;;;;;;;8.93;69.40;99271.22;5088122;28;20022;-66
2022/02/07 00:41:00;;;;;;;;;;;;;;;8.91;69.53;99263.34;5087992;28;19999;-66
2022/02/07 00:43:31;;;;;;;;;;;;;;;8.95;69.03;99275.44;5087672;28;19922;-66
2022/02/07 00:46:23;;;;;;;;;;;;;;;8.90;69.47;99259.00;5087649;28;20340;-66
2022/02/07 00:48:42;;;;;;;;;;;;;;;8.86;69.57;99268.31;5097608;28;19911;-66
2022/02/07 00:51:10;;;;;;;;;;;;;;;8.91;69.62;99266.03;5108118;28;19919;-67
2022/02/07 00:53:35;;;;;;;;;;;;;;;8.88;69.54;99255.66;5089513;28;20010;-66
2022/02/07 00:56:01;;;;;;;;;;;;;;;8.87;69.73;99245.13;5087665;28;20014;-65
2022/02/07 00:58:26;;;;;;;;;;;;;;;8.90;69.65;99252.84;5088367;28;19937;-66
2022/02/07 01:00:54;;;;;;;;;;;;;;;8.91;69.60;99246.50;5107483;28;19918;-66
2022/02/07 01:03:20;;;;;;;;;;;;;;;8.95;69.44;99246.03;5113074;28;20360;-66
2022/02/07 01:05:46;;;;;;;;;;;;;;;8.91;69.68;99233.13;5107551;28;19915;-68
2022/02/07 01:08:11;;;;;;;;;;;;;;;8.91;69.85;99230.44;5112452;28;19922;-68
2022/02/07 01:10:51;;;;;;;;;;;;;;;8.91;69.91;99231.25;5102585;28;19911;-68
2022/02/07 01:57:54;;;;;;;;;;;;;;;8.78;71.70;99163.97;5114903;27;20372;-68
2022/02/07 02:00:19;;;;;;;;;;;;;;;8.80;71.67;99156.63;5090516;28;19919;-68
2022/02/07 02:02:45;;;;;;;;;;;;;;;8.79;71.87;99146.09;5106076;28;19922;-68
2022/02/07 02:05:11;;;;;;;;;;;;;;;8.79;72.10;99146.09;5112164;28;19915;-68
2022/02/07 02:07:36;;;;;;;;;;;;;;;8.80;72.02;99139.75;5102297;27;20387;-68
2022/02/07 02:10:03;;;;;;;;;;;;;;;8.77;72.16;99127.53;5107338;27;19957;-68
2022/02/07 02:12:32;;;;;;;;;;;;;;;8.78;72.38;99123.03;5108169;28;20348;-66
2022/02/07 02:15:27;;;;;;;;;;;;;;;8.79;72.30;99114.88;5105294;28;19915;-65
2022/02/07 02:46:48;;;;;;;;;;;;;;;8.58;73.99;99062.72;5102319;28;19916;-66
2022/02/07 02:49:14;;;;;;;;;;;;;;;8.58;74.08;99052.84;5106417;28;19973;-68
2022/02/07 02:51:39;;;;;;;;;;;;;;;8.56;74.87;99062.03;5104169;28;19919;-68
2022/02/07 02:54:07;;;;;;;;;;;;;;;8.52;74.91;99064.16;5110074;28;19942;-68
2022/02/07 02:56:34;;;;;;;;;;;;;;;8.54;75.07;99050.63;5092193;28;19922;-65
2022/02/07 02:58:59;;;;;;;;;;;;;;;8.50;75.58;99044.78;5104939;28;19943;-67
2022/02/07 03:01:24;;;;;;;;;;;;;;;8.48;75.43;99051.28;5107328;28;19962;-66
2022/02/07 03:03:50;;;;;;;;;;;;;;;8.46;75.78;99054.09;5094516;28;19915;-68
2022/02/07 03:06:15;;;;;;;;;;;;;;;8.43;76.23;99041.03;5088743;28;20007;-68
2022/02/07 03:08:41;;;;;;;;;;;;;;;8.41;76.37;99042.16;5097908;28;19916;-68
2022/02/07 03:16:38;;;;;;;;;;;;;;;8.33;77.43;99045.63;5094737;28;19922;-68
2022/02/07 03:19:13;;;;;;;;;;;;;;;8.34;77.60;99044.63;5102257;28;19911;-68
2022/02/07 03:21:39;;;;;;;;;;;;;;;8.28;78.03;99039.88;5086093;28;19958;-68
2022/02/07 03:24:05;;;;;;;;;;;;;;;8.28;77.64;99028.34;5098721;28;19915;-68
2022/02/07 03:26:35;;;;;;;;;;;;;;;8.26;78.27;99025.81;5091259;28;19947;-68
2022/02/07 03:29:00;;;;;;;;;;;;;;;8.25;77.88;99018.81;5089656;28;19922;-66
2022/02/07 03:31:26;;;;;;;;;;;;;;;8.25;78.09;99018.81;5090654;28;20389;-67
2022/02/07 03:33:51;;;;;;;;;;;;;;;8.26;78.09;99007.13;5087711;28;19919;-67
2022/02/07 03:36:16;;;;;;;;;;;;;;;8.22;78.12;98997.75;5089760;28;19919;-66
2022/02/07 03:38:42;;;;;;;;;;;;;;;8.29;77.98;98998.81;5104398;28;19951;-66
2022/02/07 03:41:08;;;;;;;;;;;;;;;8.25;78.16;98988.56;5110600;28;19920;-66
2022/02/07 03:43:33;;;;;;;;;;;;;;;8.32;77.62;98982.47;5088681;28;20382;-66
2022/02/07 03:46:00;;;;;;;;;;;;;;;8.28;77.52;98980.25;5102130;28;19911;-66
2022/02/07 03:48:25;;;;;;;;;;;;;;;8.31;77.09;98977.28;5110179;28;20030;-67
2022/02/07 03:50:51;;;;;;;;;;;;;;;8.29;77.14;98984.63;5108883;28;20010;-68
2022/02/07 03:53:16;;;;;;;;;;;;;;;8.24;77.09;98976.22;5087275;28;19923;-68
2022/02/07 03:55:41;;;;;;;;;;;;;;;8.25;77.55;98960.06;5097041;28;19919;-68
2022/02/07 03:58:07;;;;;;;;;;;;;;;8.25;76.46;98969.88;5091283;28;19923;-68
2022/02/07 04:00:34;;;;;;;;;;;;;;;8.27;76.28;98943.88;5086922;28;19938;-68
2022/02/07 04:03:03;;;;;;;;;;;;;;;8.25;76.34;98948.53;5089060;28;19961;-68
2022/02/07 04:05:46;;;;;;;;;;;;;;;8.27;76.10;98939.38;5089008;28;19912;-68
2022/02/07 04:08:13;;;;;;;;;;;;;;;8.25;75.94;98932.50;5087279;28;19916;-69
2022/02/07 04:11:05;;;;;;;;;;;;;;;8.27;76.28;98938.53;5088499;28;19962;-68
2022/02/07 04:13:33;;;;;;;;;;;;;;;8.24;76.06;98934.34;5087835;28;20292;-68
2022/02/07 04:15:59;;;;;;;;;;;;;;;8.28;76.02;98937.53;5088624;28;19965;-68
2022/02/07 04:18:28;;;;;;;;;;;;;;;8.23;75.81;98927.34;5088315;28;19955;-68
2022/02/07 04:20:53;;;;;;;;;;;;;;;8.24;76.12;98918.31;5087762;28;20216;-68
2022/02/07 04:23:18;;;;;;;;;;;;;;;8.22;76.28;98917.63;5098180;28;19919;-68
2022/02/07 04:25:44;;;;;;;;;;;;;;;8.23;76.64;98918.47;5086753;28;19954;-68
2022/02/07 04:28:09;;;;;;;;;;;;;;;8.24;76.00;98906.78;5088342;28;19923;-68
2022/02/07 04:30:34;;;;;;;;;;;;;;;8.29;75.67;98901.84;5088027;28;20296;-68
2022/02/07 04:33:00;;;;;;;;;;;;;;;8.27;75.86;98893.13;5088058;28;20254;-68
2022/02/07 04:35:25;;;;;;;;;;;;;;;8.25;75.97;98897.78;5104409;28;19923;-68
2022/02/07 04:37:50;;;;;;;;;;;;;;;8.26;75.87;98896.81;5108262;28;19920;-66
2022/02/07 04:40:16;;;;;;;;;;;;;;;8.26;76.20;98900.28;5108621;28;19915;-67
2022/02/07 04:42:41;;;;;;;;;;;;;;;8.26;76.23;98899.47;5108224;28;19951;-66
2022/02/07 04:50:34;;;;;;;;;;;;;;;8.28;75.47;98916.16;5088302;28;19965;-66
2022/02/07 05:13:57;;;;;;;;;;;;;;;8.14;74.71;98922.03;5056111;28;20350;-69
2022/02/07 05:16:26;;;;;;;;;;;;;;;8.09;74.91;98922.47;5105353;28;20276;-68
2022/02/07 05:18:55;;;;;;;;;;;;;;;8.07;74.64;98913.81;5088642;28;19947;-68
2022/02/07 05:21:21;;;;;;;;;;;;;;;8.05;74.51;98929.13;5110099;28;20395;-68
2022/02/07 05:23:46;;;;;;;;;;;;;;;8.03;74.44;98927.63;5091241;28;19916;-68
2022/02/07 05:26:12;;;;;;;;;;;;;;;7.99;74.46;98920.88;5111921;28;19915;-68
2022/02/07 05:28:37;;;;;;;;;;;;;;;8.01;74.46;98924.25;5116411;28;20011;-68
2022/02/07 05:31:03;;;;;;;;;;;;;;;8.04;74.12;98916.78;5118267;28;19911;-68
2022/02/07 05:33:28;;;;;;;;;;;;;;;8.09;73.62;98913.66;5110451;28;20322;-68
2022/02/07 05:35:54;;;;;;;;;;;;;;;8.05;73.85;98915.78;5087850;28;20399;-68
2022/02/07 05:38:19;;;;;;;;;;;;;;;8.04;74.30;98911.44;5109030;28;20411;-68
2022/02/07 05:40:53;;;;;;;;;;;;;;;8.05;73.96;98909.59;5086147;28;19916;-68
2022/02/07 05:43:19;;;;;;;;;;;;;;;8.04;74.81;98923.94;5093274;28;20319;-68
2022/02/07 05:45:44;;;;;;;;;;;;;;;8.01;75.41;98911.75;5088141;28;19919;-68
2022/02/07 05:48:10;;;;;;;;;;;;;;;8.00;76.41;98919.91;5091078;28;20442;-68
2022/02/07 05:50:35;;;;;;;;;;;;;;;8.02;77.23;98921.44;5091713;28;19965;-68
2022/02/07 05:53:00;;;;;;;;;;;;;;;7.99;78.51;98927.06;5093303;28;19912;-68
2022/02/07 05:55:26;;;;;;;;;;;;;;;8.01;80.01;98932.25;5089901;28;20352;-67
2022/02/07 05:57:52;;;;;;;;;;;;;;;8.04;81.06;98922.13;5090936;28;20405;-68
2022/02/07 06:00:17;;;;;;;;;;;;;;;8.02;82.27;98921.44;5089391;28;20391;-68
2022/02/07 06:02:43;;;;;;;;;;;;;;;8.02;83.64;98926.75;5089344;28;19916;-68
2022/02/07 06:05:08;;;;;;;;;;;;;;;8.00;83.83;98938.59;5090749;28;20291;-67
2022/02/07 06:07:33;;;;;;;;;;;;;;;7.99;84.95;98929.72;5090586;28;19912;-67
2022/02/07 06:09:59;;;;;;;;;;;;;;;7.96;85.49;98938.03;5089170;28;19911;-68
2022/02/07 06:12:24;;;;;;;;;;;;;;;7.95;86.32;98936.38;5089375;28;19915;-65
2022/02/07 06:14:51;;;;;;;;;;;;;;;7.95;86.60;98940.88;5090797;28;19920;-66
2022/02/07 06:17:16;;;;;;;;;;;;;;;7.93;87.35;98938.34;5091540;28;19912;-66
2022/02/07 06:19:42;;;;;;;;;;;;;;;7.94;87.60;98936.53;5090396;28;19918;-66
2022/02/07 06:22:07;;;;;;;;;;;;;;;7.98;88.09;98944.09;5109115;28;19923;-66
2022/02/07 06:24:32;;;;;;;;;;;;;;;7.99;88.94;98955.59;5111144;28;19923;-65
2022/02/07 06:26:58;;;;;;;;;;;;;;;8.05;89.81;98962.97;5110801;28;20006;-66
2022/02/07 06:29:23;;;;;;;;;;;;;;;8.05;89.98;98963.84;5089120;28;19935;-66
2022/02/07 06:31:49;;;;;;;;;;;;;;;8.08;91.02;98974.22;5090491;28;20292;-66
2022/02/07 06:34:14;;;;;;;;;;;;;;;8.13;91.42;98977.25;5090515;28;20371;-66
2022/02/07 06:36:40;;;;;;;;;;;;;;;8.20;91.79;98990.84;5103564;28;19916;-66
2022/02/07 06:39:05;;;;;;;;;;;;;;;8.11;92.16;99023.78;5088923;28;20349;-66
2022/02/07 06:41:30;;;;;;;;;;;;;;;8.02;93.20;99032.69;5090218;28;19951;-66
2022/02/07 06:43:56;;;;;;;;;;;;;;;8.06;93.06;99039.44;5089943;28;20168;-65
2022/02/07 06:46:21;;;;;;;;;;;;;;;7.97;93.66;99022.47;5088773;28;20310;-66
2022/02/07 06:48:46;;;;;;;;;;;;;;;8.14;92.83;99024.34;5091125;28;19912;-66
2022/02/07 06:51:12;;;;;;;;;;;;;;;8.08;93.89;99032.97;5089328;28;19912;-67
2022/02/07 06:53:37;;;;;;;;;;;;;;;8.13;94.31;99024.50;5090419;27;19916;-66
2022/02/07 06:56:03;;;;;;;;;;;;;;;8.02;95.30;99024.69;5097021;28;19951;-66
2022/02/07 06:58:28;;;;;;;;;;;;;;;8.04;96.03;99031.59;5102139;28;19923;-66
2022/02/07 07:00:54;;;;;;;;;;;;;;;8.02;97.15;99040.72;5111227;28;19915;-66
2022/02/07 07:03:21;;;;;;;;;;;;;;;7.91;98.61;99030.25;5089770;28;19923;-66
2022/02/07 07:05:48;;;;;;;;;;;;;;;7.92;99.08;99023.91;5090988;28;19912;-66
2022/02/07 07:08:14;;;;;;;;;;;;;;;7.79;100.00;99023.44;5090604;28;19916;-66
2022/02/07 07:10:39;;;;;;;;;;;;;;;7.79;100.00;99012.75;5093422;28;19922;-66
2022/02/07 07:13:12;;;;;;;;;;;;;;;7.73;100.00;99010.66;5088868;28;19919;-66
2022/02/07 07:15:41;;;;;;;;;;;;;;;7.66;100.00;99015.78;5090454;28;19977;-66
2022/02/07 07:18:07;;;;;;;;;;;;;;;7.69;100.00;99010.16;5106593;28;19915;-65
2022/02/07 07:20:33;;;;;;;;;;;;;;;7.79;100.00;99015.41;5106250;28;20257;-65
2022/02/07 07:23:01;;;;;;;;;;;;;;;7.72;100.00;99009.00;5090332;28;19918;-65
2022/02/07 07:25:26;;;;;;;;;;;;;;;7.72;100.00;99014.34;5090894;28;19920;-67
2022/02/07 07:30:29;;;;;;;;;;;;;;;7.59;100.00;99006.69;5090481;28;19999;-66
2022/02/07 07:32:59;;;;;;;;;;;;;;;7.65;100.00;99022.13;5092232;28;19923;-65
2022/02/07 07:35:25;;;;;;;;;;;;;;;7.67;100.00;99022.78;5095766;28;20281;-66
2022/02/07 07:37:50;;;;;;;;;;;;;;;7.82;100.00;99018.66;5092931;28;19912;-66
2022/02/07 07:40:15;;;;;;;;;;;;;;;7.79;100.00;99026.09;5090234;28;19947;-65
2022/02/07 07:42:41;;;;;;;;;;;;;;;7.77;100.00;99031.56;5102419;28;19915;-65
2022/02/07 07:45:07;;;;;;;;;;;;;;;7.78;100.00;99037.75;5110732;28;19911;-66
2022/02/07 07:47:33;;;;;;;;;;;;;;;7.80;100.00;99039.28;5110205;28;20011;-66
2022/02/07 07:50:09;;;;;;;;;;;;;;;7.77;100.00;99049.44;5105129;28;20002;-68
2022/02/07 08:01:15;;;;;;;;;;;;;;;7.74;100.00;99041.72;5104902;28;20299;-69
2022/02/07 08:03:42;;;;;;;;;;;;;;;7.91;100.00;99035.59;5105659;28;19956;-66
2022/02/07 08:06:16;;;;;;;;;;;;;;;7.99;100.00;99025.84;5088538;28;19912;-66
2022/02/07 08:08:49;;;;;;;;;;;;;;;7.91;100.00;99033.78;5089330;28;19911;-66
2022/02/07 08:11:15;;;;;;;;;;;;;;;8.00;100.00;99045.38;5097388;28;19915;-66
2022/02/07 08:13:43;;;;;;;;;;;;;;;8.14;98.72;99060.88;5109630;28;19919;-66
2022/02/07 08:16:08;;;;;;;;;;;;;;;8.11;97.39;99061.19;5091639;28;19961;-66
2022/02/07 08:18:33;;;;;;;;;;;;;;;8.02;97.98;99068.25;5110122;28;19912;-66
2022/02/07 08:20:59;;;;;;;;;;;;;;;8.07;97.70;99074.00;5101055;28;20293;-66
2022/02/07 08:23:25;;;;;;;;;;;;;;;8.19;94.90;99079.97;5107179;28;19926;-65
2022/02/07 08:25:52;;;;;;;;;;;;;;;8.22;93.52;99085.88;5088397;28;19923;-66
2022/02/07 08:28:17;;;;;;;;;;;;;;;8.22;94.24;99085.06;5088287;28;20010;-66
2022/02/07 08:30:42;;;;;;;;;;;;;;;8.31;91.83;99092.13;5089765;28;20011;-69
2022/02/07 08:33:08;;;;;;;;;;;;;;;8.21;90.49;99102.88;5100051;28;20002;-69
2022/02/07 08:35:33;;;;;;;;;;;;;;;8.20;90.49;99098.53;5106963;28;19915;-69
2022/02/07 08:37:59;;;;;;;;;;;;;;;8.27;87.73;99102.31;5101207;28;19912;-68
2022/02/07 08:40:25;;;;;;;;;;;;;;;8.28;87.39;99100.44;5100394;28;19965;-68
2022/02/07 08:42:51;;;;;;;;;;;;;;;8.29;87.33;99115.50;5090166;28;19912;-68
2022/02/07 08:45:17;;;;;;;;;;;;;;;8.18;86.89;99116.50;5098998;28;19912;-69
2022/02/07 08:47:43;;;;;;;;;;;;;;;8.11;87.57;99125.25;5097986;28;19912;-69
2022/02/07 08:50:10;;;;;;;;;;;;;;;8.30;84.50;99130.53;5092237;28;20018;-69
2022/02/07 08:52:36;;;;;;;;;;;;;;;8.27;85.23;99128.16;5099577;28;19915;-68
2022/02/07 08:55:03;;;;;;;;;;;;;;;8.26;85.39;99132.66;5097073;28;19977;-68
2022/02/07 08:57:35;;;;;;;;;;;;;;;8.30;85.71;99144.75;5092698;28;20391;-69
2022/02/07 09:00:21;;;;;;;;;;;;;;;8.22;85.44;99163.31;5106911;28;19916;-65
2022/02/07 09:07:49;;;;;;;;;;;;;;;7.83;82.13;99167.09;5089114;28;19919;-65
2022/02/07 09:10:15;;;;;;;;;;;;;;;7.67;83.38;99163.38;5088475;28;19923;-68
2022/02/07 09:12:43;;;;;;;;;;;;;;;7.69;83.03;99180.06;5100684;28;19912;-69
2022/02/07 09:15:29;;;;;;;;;;;;;;;7.66;82.27;99191.88;5095235;28;19916;-69
2022/02/07 09:18:02;;;;;;;;;;;;;;;7.69;82.84;99202.25;5107437;28;20006;-68
2022/02/07 09:20:27;;;;;;;;;;;;;;;7.57;82.40;99206.06;5101090;28;19911;-69
2022/02/07 09:22:53;;;;;;;;;;;;;;;7.43;83.14;99219.84;5102055;28;19911;-69
2022/02/07 09:25:18;;;;;;;;;;;;;;;7.52;83.09;99231.50;5100204;28;20013;-69
2022/02/07 09:27:43;;;;;;;;;;;;;;;7.51;83.07;99230.66;5102884;28;19915;-69
2022/02/07 09:30:09;;;;;;;;;;;;;;;7.47;83.38;99229.25;5104715;28;19912;-69
2022/02/07 09:32:34;;;;;;;;;;;;;;;7.41;82.18;99229.81;5106986;28;19916;-69
2022/02/07 09:34:59;;;;;;;;;;;;;;;7.56;80.54;99239.09;5106881;28;19924;-69
2022/02/07 09:37:25;;;;;;;;;;;;;;;7.50;79.30;99244.97;5094055;28;19916;-69
2022/02/07 09:39:50;;;;;;;;;;;;;;;7.56;78.71;99232.88;5105369;28;20014;-68
2022/02/07 09:42:18;;;;;;;;;;;;;;;7.53;79.71;99255.38;5111172;28;19922;-69
2022/02/07 09:44:51;;;;;;;;;;;;;;;7.42;79.38;99260.84;5105323;28;20414;-69
2022/02/07 09:47:16;;;;;;;;;;;;;;;7.35;79.76;99275.72;5099105;28;19919;-68
2022/02/07 09:49:45;;;;;;;;;;;;;;;7.55;78.68;99282.75;5108412;28;20010;-65
2022/02/07 09:52:11;;;;;;;;;;;;;;;7.61;77.96;99306.19;5092480;28;19923;-65
2022/02/07 09:54:37;;;;;;;;;;;;;;;7.42;77.91;99284.88;5090759;28;19976;-66
2022/02/07 09:57:03;;;;;;;;;;;;;;;7.41;78.06;99285.81;5107591;28;19919;-66
2022/02/07 09:59:31;;;;;;;;;;;;;;;7.38;76.55;99306.63;5105910;28;19911;-66
2022/02/07 10:02:00;;;;;;;;;;;;;;;7.22;79.17;99300.97;5092011;28;20465;-66
2022/02/07 10:04:32;;;;;;;;;;;;;;;7.37;78.18;99297.75;5093952;28;19937;-66
2022/02/07 10:07:23;;;;;;;;;;;;;;;7.44;78.59;99306.88;5112159;28;20336;-66
2022/02/07 10:15:13;;;;;;;;;;;;;;;7.59;75.72;99318.84;5091749;28;19927;-66
2022/02/07 10:42:12;;;;;;;;;;;;;;;7.98;64.11;99341.00;5101099;28;19980;-66
2022/02/07 10:44:33;;;;;;;;;;;;;;;8.15;63.79;99327.78;5090815;28;19942;-66
2022/02/07 10:47:04;;;;;;;;;;;;;;;8.19;63.03;99345.19;5091429;28;20024;-65
2022/02/07 10:49:30;;;;;;;;;;;;;;;8.15;63.86;99330.44;5093023;28;19922;-65
2022/02/07 10:51:59;;;;;;;;;;;;;;;8.30;62.45;99322.84;5098128;28;19911;-65
2022/02/07 10:54:24;;;;;;;;;;;;;;;8.14;63.12;99307.41;5091805;28;19920;-66
2022/02/07 10:56:51;;;;;;;;;;;;;;;8.15;61.76;99285.03;5089393;28;19920;-66
2022/02/07 10:59:18;;;;;;;;;;;;;;;8.11;60.39;99298.81;5086421;28;19995;-66
2022/02/07 11:04:22;;;;;;;;;;;;;;;8.10;58.23;99314.00;5109676;28;20291;-67
2022/02/07 11:06:51;;;;;;;;;;;;;;;8.03;58.33;99322.75;5087668;28;19911;-67
2022/02/07 11:09:24;;;;;;;;;;;;;;;8.03;57.65;99338.75;5088543;28;19912;-66
2022/02/07 11:14:50;;;;;;;;;;;;;;;8.06;56.87;99351.84;5090983;28;20326;-67
2022/02/07 11:21:05;;;;;;;;;;;;;;;8.20;57.41;99394.09;5034380;28;19920;-66
2022/02/07 11:26:01;;;;;;;;;;;;;;;8.10;58.90;99394.09;5088687;28;19916;-67
2022/02/07 11:28:28;;;;;;;;;;;;;;;8.28;59.01;99420.97;5104625;28;20006;-67
2022/02/07 11:30:53;;;;;;;;;;;;;;;8.37;57.11;99425.47;5092673;28;19912;-67
2022/02/07 11:33:30;;;;;;;;;;;;;;;8.16;58.79;99424.75;5111166;28;19919;-68
2022/02/07 11:35:55;;;;;;;;;;;;;;;8.02;59.29;99446.53;5098665;28;19912;-66
2022/02/07 11:38:21;;;;;;;;;;;;;;;7.94;58.71;99433.03;5101395;28;20002;-66
2022/02/07 11:40:55;;;;;;;;;;;;;;;7.95;59.09;99445.41;5099913;28;19947;-66
2022/02/07 11:43:22;;;;;;;;;;;;;;;8.05;59.54;99441.75;5101487;28;19927;-66
2022/02/07 11:45:50;;;;;;;;;;;;;;;7.99;59.52;99454.81;5095125;28;19915;-66
2022/02/07 11:48:17;;;;;;;;;;;;;;;8.07;55.96;99442.47;5090215;28;20027;-65
2022/02/07 11:50:44;;;;;;;;;;;;;;;7.91;55.86;99446.66;5104469;28;19912;-66
2022/02/07 11:53:10;;;;;;;;;;;;;;;8.01;56.17;99447.53;5105173;28;20350;-66
2022/02/07 11:55:40;;;;;;;;;;;;;;;7.99;55.11;99447.66;5105460;28;19916;-66
2022/02/07 11:58:26;;;;;;;;;;;;;;;7.88;55.36;99439.78;5092925;28;19939;-65
2022/02/07 12:00:57;;;;;;;;;;;;;;;8.03;54.81;99457.06;5091747;28;19920;-66
2022/02/07 12:03:24;;;;;;;;;;;;;;;7.96;55.06;99471.97;5092960;28;20418;-66
2022/02/07 12:05:55;;;;;;;;;;;;;;;8.04;54.71;99466.78;5098969;28;19912;-68
2022/02/07 12:08:24;;;;;;;;;;;;;;;8.09;53.33;99469.03;5101440;28;19955;-68
2022/02/07 12:11:01;;;;;;;;;;;;;;;8.03;53.39;99461.59;5095757;28;19919;-68
2022/02/07 12:13:26;;;;;;;;;;;;;;;7.85;53.18;99450.75;5092385;28;19922;-66
2022/02/07 12:15:54;;;;;;;;;;;;;;;7.88;52.57;99492.31;5106382;28;20372;-66
2022/02/07 12:18:20;;;;;;;;;;;;;;;7.88;52.63;99482.50;5090945;28;21637;-66
2022/02/07 12:20:49;;;;;;;;;;;;;;;7.91;52.44;99486.72;5088208;28;19969;-65
2022/02/07 12:23:17;;;;;;;;;;;;;;;7.93;51.94;99495.44;5102796;28;19951;-65
2022/02/07 12:25:56;;;;;;;;;;;;;;;7.88;52.74;99511.00;5089350;28;20371;-66
2022/02/07 12:33:43;;;;;;;;;;;;;;;7.90;52.35;99522.41;5100444;28;20383;-69
2022/02/07 12:36:09;;;;;;;;;;;;;;;7.77;54.03;99545.84;5107606;28;19920;-69
2022/02/07 12:38:39;;;;;;;;;;;;;;;7.72;53.89;99548.06;5089697;28;19912;-68
2022/02/07 12:41:09;;;;;;;;;;;;;;;7.73;52.38;99544.41;5104170;28;19992;-68
2022/02/07 12:43:37;;;;;;;;;;;;;;;8.05;51.16;99572.59;5101415;28;20084;-68
2022/02/07 12:46:03;;;;;;;;;;;;;;;8.01;50.88;99576.53;5091521;28;19945;-68
2022/02/07 12:48:29;;;;;;;;;;;;;;;7.85;50.79;99564.66;5102601;28;20403;-68
2022/02/07 12:50:55;;;;;;;;;;;;;;;7.82;51.56;99576.47;5104834;28;19912;-69
2022/02/07 12:53:23;;;;;;;;;;;;;;;7.76;51.73;99587.69;5099652;28;19916;-68
2022/02/07 12:55:55;;;;;;;;;;;;;;;7.98;50.82;99586.63;5109091;28;19941;-68
2022/02/07 12:58:21;;;;;;;;;;;;;;;7.90;50.55;99594.50;5107605;28;19954;-68
2022/02/07 13:00:48;;;;;;;;;;;;;;;7.82;50.94;99602.31;5106238;28;19912;-68
2022/02/07 13:03:13;;;;;;;;;;;;;;;7.90;51.38;99605.16;5094037;28;20368;-68
2022/02/07 13:05:38;;;;;;;;;;;;;;;7.95;50.68;99618.94;5106255;28;19957;-68
2022/02/07 13:08:04;;;;;;;;;;;;;;;7.88;50.26;99615.97;5095993;28;19911;-68
2022/02/07 13:10:34;;;;;;;;;;;;;;;8.03;49.87;99613.78;5104854;28;19911;-68
2022/02/07 13:15:29;;;;;;;;;;;;;;;8.05;49.47;99620.66;5102943;28;20011;-68
2022/02/07 13:17:58;;;;;;;;;;;;;;;7.94;50.11;99615.44;5109118;28;19919;-69
2022/02/07 13:20:24;;;;;;;;;;;;;;;7.99;50.23;99613.19;5093366;28;19912;-69
2022/02/07 13:23:11;;;;;;;;;;;;;;;8.05;49.70;99627.81;5100461;28;19957;-68
2022/02/07 13:25:54;;;;;;;;;;;;;;;8.01;49.66;99645.94;5105767;28;19946;-68
2022/02/07 13:28:27;;;;;;;;;;;;;;;7.96;50.18;99644.69;5113812;28;19957;-68
2022/02/07 13:30:53;;;;;;;;;;;;;;;8.01;49.31;99653.09;5100114;28;19919;-68
2022/02/07 13:33:19;;;;;;;;;;;;;;;8.02;49.60;99665.47;5095588;28;19911;-68
2022/02/07 13:35:47;;;;;;;;;;;;;;;8.14;48.25;99667.94;5093929;28;19919;-68
2022/02/07 13:38:14;;;;;;;;;;;;;;;8.18;48.79;99666.66;5096058;28;19942;-68
2022/02/07 13:40:40;;;;;;;;;;;;;;;8.38;47.04;99686.28;5094705;28;20415;-68
2022/02/07 13:43:08;;;;;;;;;;;;;;;8.14;48.35;99688.44;5095657;28;19911;-69
2022/02/07 13:45:34;;;;;;;;;;;;;;;8.19;48.91;99692.38;5102863;28;19956;-69
2022/02/07 13:48:00;;;;;;;;;;;;;;;8.25;47.64;99693.69;5104309;28;20007;-68
2022/02/07 13:50:29;;;;;;;;;;;;;;;8.12;48.33;99690.38;5095110;28;19912;-69
2022/02/07 13:52:59;;;;;;;;;;;;;;;8.11;47.87;99704.72;5105242;28;19915;-68
2022/02/07 13:55:28;;;;;;;;;;;;;;;7.98;48.90;99702.28;5094907;28;20393;-69
2022/02/07 13:57:59;;;;;;;;;;;;;;;7.95;49.02;99720.38;5106792;28;19923;-68
2022/02/07 14:00:29;;;;;;;;;;;;;;;8.00;49.03;99744.88;5098016;28;19943;-68
2022/02/07 14:03:14;;;;;;;;;;;;;;;8.01;49.06;99727.88;5100721;28;19912;-69
2022/02/07 14:05:53;;;;;;;;;;;;;;;8.01;48.83;99730.53;5085583;28;19911;-68
2022/02/07 14:08:33;;;;;;;;;;;;;;;7.95;49.33;99733.75;5098820;28;19946;-69
2022/02/07 14:10:59;;;;;;;;;;;;;;;7.91;49.83;99738.50;5092273;28;20018;-69
2022/02/07 14:13:25;;;;;;;;;;;;;;;7.91;50.77;99743.00;5109776;28;20013;-69
2022/02/07 14:15:50;;;;;;;;;;;;;;;7.86;50.50;99748.72;5101684;28;19916;-69
2022/02/07 14:18:18;;;;;;;;;;;;;;;7.91;51.03;99751.88;5100644;28;19919;-69
2022/02/07 14:20:44;;;;;;;;;;;;;;;8.15;49.59;99740.88;5092189;28;19931;-69
2022/02/07 14:23:13;;;;;;;;;;;;;;;8.11;49.21;99767.00;5104945;28;19918;-68
2022/02/07 14:25:39;;;;;;;;;;;;;;;8.24;48.01;99761.47;5094710;28;19922;-69
2022/02/07 14:28:05;;;;;;;;;;;;;;;8.05;49.38;99764.88;5104761;28;19988;-69
2022/02/07 14:30:31;;;;;;;;;;;;;;;7.98;49.55;99763.72;5103547;28;19911;-69
2022/02/07 14:32:57;;;;;;;;;;;;;;;7.98;49.45;99778.88;5103101;28;19964;-68
2022/02/07 14:35:22;;;;;;;;;;;;;;;7.95;49.50;99773.78;5090724;28;19923;-69
2022/02/07 14:37:48;;;;;;;;;;;;;;;8.04;49.28;99770.34;5102859;28;19919;-69
2022/02/07 14:40:14;;;;;;;;;;;;;;;8.02;49.22;99786.50;5098573;28;20334;-69
2022/02/07 14:42:39;;;;;;;;;;;;;;;7.99;48.60;99781.41;5104700;28;19911;-69
2022/02/07 14:45:15;;;;;;;;;;;;;;;8.11;48.93;99782.19;5100841;28;19912;-69
2022/02/07 14:50:09;;;;;;;;;;;;;;;8.17;49.62;99801.22;5103248;28;20002;-69
2022/02/07 14:52:35;;;;;;;;;;;;;;;8.02;50.51;99817.69;5106536;28;20424;-69
2022/02/07 14:55:00;;;;;;;;;;;;;;;7.92;50.53;99812.28;5103857;28;19935;-69
2022/02/07 14:57:27;;;;;;;;;;;;;;;7.89;50.81;99819.69;5102239;28;19972;-69
2022/02/07 14:59:52;;;;;;;;;;;;;;;7.85;50.84;99818.28;5103927;28;19976;-69
2022/02/07 15:02:20;;;;;;;;;;;;;;;7.95;50.60;99844.06;5109401;28;19912;-68
2022/02/07 15:04:46;;;;;;;;;;;;;;;7.90;50.61;99837.44;5093290;28;19955;-68
2022/02/07 15:07:12;;;;;;;;;;;;;;;7.86;49.92;99852.84;5104036;28;19916;-69
2022/02/07 15:09:37;;;;;;;;;;;;;;;7.63;50.79;99861.94;5100189;28;19919;-69
2022/02/07 15:12:03;;;;;;;;;;;;;;;7.59;50.58;99872.97;5104820;28;19919;-69
2022/02/07 15:14:28;;;;;;;;;;;;;;;7.58;49.96;99880.13;5099383;28;19961;-69
2022/02/07 15:16:53;;;;;;;;;;;;;;;7.42;50.51;99885.06;5105597;28;20006;-69
2022/02/07 15:19:18;;;;;;;;;;;;;;;7.40;50.27;99883.47;5098224;28;19916;-69
2022/02/07 15:21:44;;;;;;;;;;;;;;;7.46;50.54;99878.50;5101455;28;19918;-69
2022/02/07 15:24:09;;;;;;;;;;;;;;;7.35;51.35;99899.00;5091930;28;19920;-69
2022/02/07 15:26:35;;;;;;;;;;;;;;;7.29;50.17;99900.38;5093243;28;19911;-69
2022/02/07 15:29:00;;;;;;;;;;;;;;;7.25;50.37;99895.41;5095530;28;19970;-68
2022/02/07 15:31:31;;;;;;;;;;;;;;;7.18;50.60;99915.50;5100591;28;19915;-68
2022/02/07 15:33:56;;;;;;;;;;;;;;;7.11;50.77;99914.31;5096508;28;19915;-69
2022/02/07 15:36:24;;;;;;;;;;;;;;;7.30;50.29;99927.88;5102267;28;19915;-68
2022/02/07 15:38:50;;;;;;;;;;;;;;;7.07;50.68;99933.22;5102759;28;20102;-69
2022/02/07 15:41:15;;;;;;;;;;;;;;;7.12;50.97;99938.19;5098591;28;19916;-69
2022/02/07 15:43:41;;;;;;;;;;;;;;;6.98;51.12;99944.63;5095414;28;19911;-68
2022/02/07 15:46:06;;;;;;;;;;;;;;;7.00;51.04;99949.84;5092684;28;19912;-68
2022/02/07 15:48:33;;;;;;;;;;;;;;;7.04;50.37;99944.13;5102866;28;19916;-68
2022/02/07 15:50:59;;;;;;;;;;;;;;;6.91;50.94;99946.06;5101390;28;19919;-69